地図

経路データ

SID SEASON NUMBER BASIN SUBBASIN NAME ISO_TIME NATURE LAT LON WMO_WIND WMO_PRES WMO_AGENCY TRACK_TYPE DIST2LAND LANDFALL IFLAG USA_AGENCY USA_ATCF_ID USA_LAT USA_LON USA_RECORD USA_STATUS USA_WIND USA_PRES USA_SSHS USA_R34_NE USA_R34_SE USA_R34_SW USA_R34_NW USA_R50_NE USA_R50_SE USA_R50_SW USA_R50_NW USA_R64_NE USA_R64_SE USA_R64_SW USA_R64_NW USA_POCI USA_ROCI USA_RMW USA_EYE TOKYO_LAT TOKYO_LON TOKYO_GRADE TOKYO_WIND TOKYO_PRES TOKYO_R50_DIR TOKYO_R50_LONG TOKYO_R50_SHORT TOKYO_R30_DIR TOKYO_R30_LONG TOKYO_R30_SHORT TOKYO_LAND CMA_LAT CMA_LON CMA_CAT CMA_WIND CMA_PRES HKO_LAT HKO_LON HKO_CAT HKO_WIND HKO_PRES NEWDELHI_LAT NEWDELHI_LON NEWDELHI_GRADE NEWDELHI_WIND NEWDELHI_PRES NEWDELHI_CI NEWDELHI_DP NEWDELHI_POCI REUNION_LAT REUNION_LON REUNION_TYPE REUNION_WIND REUNION_PRES REUNION_TNUM REUNION_CI REUNION_RMW REUNION_R34_NE REUNION_R34_SE REUNION_R34_SW REUNION_R34_NW REUNION_R50_NE REUNION_R50_SE REUNION_R50_SW REUNION_R50_NW REUNION_R64_NE REUNION_R64_SE REUNION_R64_SW REUNION_R64_NW BOM_LAT BOM_LON BOM_TYPE BOM_WIND BOM_PRES BOM_TNUM BOM_CI BOM_RMW BOM_R34_NE BOM_R34_SE BOM_R34_SW BOM_R34_NW BOM_R50_NE BOM_R50_SE BOM_R50_SW BOM_R50_NW BOM_R64_NE BOM_R64_SE BOM_R64_SW BOM_R64_NW BOM_ROCI BOM_POCI BOM_EYE BOM_POS_METHOD BOM_PRES_METHOD NADI_LAT NADI_LON NADI_CAT NADI_WIND NADI_PRES WELLINGTON_LAT WELLINGTON_LON WELLINGTON_WIND WELLINGTON_PRES DS824_LAT DS824_LON DS824_STAGE DS824_WIND DS824_PRES TD9636_LAT TD9636_LON TD9636_STAGE TD9636_WIND TD9636_PRES TD9635_LAT TD9635_LON TD9635_WIND TD9635_PRES TD9635_ROCI NEUMANN_LAT NEUMANN_LON NEUMANN_CLASS NEUMANN_WIND NEUMANN_PRES MLC_LAT MLC_LON MLC_CLASS MLC_WIND MLC_PRES USA_GUST BOM_GUST BOM_GUST_PER REUNION_GUST REUNION_GUST_PER USA_SEAHGT USA_SEARAD_NE USA_SEARAD_SE USA_SEARAD_SW USA_SEARAD_NW STORM_SPEED STORM_DIR
1965180N15250 1965 51 EP MM AVA 1965-06-29 00:00:00 TS 15.1000 -109.700 45 hurdat_epa main 693 693 O________OO___ hurdat_epa EP031965 15.1000 -109.700 TS 45 0 15.1000 -109.700 TC 45 15.1000 -109.700 2 11 275
1965180N15250 1965 51 EP MM AVA 1965-06-29 03:00:00 TS 15.1481 -110.256 main 739 731 P________PP___ EP031965 15.1403 -110.260 TS 45 0 15.1403 -110.260 TC 45 15.1792 -110.239 2 11 276
1965180N15250 1965 51 EP MM AVA 1965-06-29 06:00:00 TS 15.2112 -110.794 45 hurdat_epa main 770 770 O________OP___ hurdat_epa EP031965 15.2000 -110.800 TS 45 0 15.2000 -110.800 TC 45 15.2562 -110.772 2 10 279
1965180N15250 1965 51 EP MM AVA 1965-06-29 09:00:00 TS 15.2999 -111.305 main 804 804 P________PP___ EP031965 15.2923 -111.308 TS 45 0 15.2923 -111.308 TC 45 15.3301 -111.294 2 10 281
1965180N15250 1965 51 EP MM AVA 1965-06-29 12:00:00 TS 15.4000 -111.800 45 hurdat_epa main 840 840 O________OO___ hurdat_epa EP031965 15.4000 -111.800 TS 45 0 15.4000 -111.800 TC 45 15.4000 -111.800 1 10 281
1965180N15250 1965 51 EP MM AVA 1965-06-29 15:00:00 TS 15.4935 -112.303 main 862 860 P________PP___ EP031965 15.4999 -112.308 TS 35 0 15.4999 -112.308 TC 35 15.4679 -112.286 1 10 281
1965180N15250 1965 51 EP MM AVA 1965-06-29 18:00:00 TS 15.5894 -112.792 25 hurdat_epa main 867 867 O________OP___ hurdat_epa EP031965 15.6000 -112.800 TD 25 -1 15.6000 -112.800 TC 25 15.5468 -112.758 1 9 281
1965180N15250 1965 51 EP MM AVA 1965-06-29 21:00:00 TS 15.6723 -113.246 main 872 872 P________PP___ EP031965 15.6773 -113.250 TD 25 -1 15.6773 -113.250 TC 25 15.6523 -113.227 1 9 284
1965180N15250 1965 51 EP MM AVA 1965-06-30 00:00:00 TS 15.8000 -113.700 25 hurdat_epa main 883 878 O________OO___ hurdat_epa EP031965 15.8000 -113.700 TD 25 -1 15.8000 -113.700 TC 25 15.8000 -113.700 1 10 291
1965180N15250 1965 51 EP MM AVA 1965-06-30 03:00:00 TS 16.0250 -114.197 main 888 883 P________PP___ EP031965 16.0274 -114.192 TD 25 -1 16.0274 -114.192 TC 25 16.0151 -114.217 1 11 297
1965180N15250 1965 51 EP MM AVA 1965-06-30 06:00:00 TS 16.2940 -114.707 25 hurdat_epa main 887 883 O________OP___ hurdat_epa EP031965 16.3000 -114.700 TD 25 -1 16.3000 -114.700 TC 25 16.2702 -114.737 1 11 298
1965180N15250 1965 51 EP MM AVA 1965-06-30 09:00:00 TS 16.5541 -115.226 main 890 890 P________PP___ EP031965 16.5575 -115.222 TD 25 -1 16.5575 -115.222 TC 25 16.5402 -115.239 1 11 298
1965180N15250 1965 51 EP MM AVA 1965-06-30 12:00:00 TS 16.8000 -115.700 25 hurdat_epa main 905 904 O________OO___ hurdat_epa EP031965 16.8000 -115.700 TD 25 -1 16.8000 -115.700 TC 25 16.8000 -115.700 2 9 299
1965180N15250 1965 51 EP MM AVA 1965-06-30 15:00:00 TS 17.0126 -116.074 main 917 909 P________PP___ EP031965 17.0073 -116.073 TD 35 0 17.0073 -116.073 TC 35 17.0339 -116.077 2 8 301
1965180N15250 1965 51 EP MM AVA 1965-06-30 18:00:00 TS 17.2103 -116.403 45 hurdat_epa main 923 923 O________OP___ hurdat_epa EP031965 17.2000 -116.400 TS 45 0 17.2000 -116.400 TC 45 17.2514 -116.415 2 8 303
1965180N15250 1965 51 EP MM AVA 1965-06-30 21:00:00 TS 17.4205 -116.737 main 931 931 P________PP___ EP031965 17.4149 -116.735 TS 45 0 17.4149 -116.735 TC 45 17.4433 -116.746 2 8 300
1965180N15250 1965 51 EP MM AVA 1965-07-01 00:00:00 TS 17.6000 -117.100 45 hurdat_epa main 947 947 O________OO___ hurdat_epa EP031965 17.6000 -117.100 TS 45 0 17.6000 -117.100 TC 45 17.6000 -117.100 2 8 292
1965180N15250 1965 51 EP MM AVA 1965-07-01 03:00:00 TS 17.7218 -117.532 main 961 961 P________PP___ EP031965 17.7225 -117.535 TS 45 0 17.7225 -117.535 TC 45 17.7190 -117.517 2 9 283
1965180N15250 1965 51 EP MM AVA 1965-07-01 06:00:00 TS 17.8005 -117.993 45 hurdat_epa main 984 984 O________OP___ hurdat_epa EP031965 17.8000 -118.000 TS 45 0 17.8000 -118.000 TC 45 17.8024 -117.963 2 9 279
1965180N15250 1965 51 EP MM AVA 1965-07-01 09:00:00 TS 17.8578 -118.439 main 1001 1001 P________PP___ EP031965 17.8573 -118.443 TS 45 0 17.8573 -118.443 TC 45 17.8595 -118.427 2 9 277
1965180N15250 1965 51 EP MM AVA 1965-07-01 12:00:00 TS 17.9000 -118.900 45 hurdat_epa main 1035 1035 O________OO___ hurdat_epa EP031965 17.9000 -118.900 TS 45 0 17.9000 -118.900 TC 45 17.9000 -118.900 2 9 276
1965180N15250 1965 51 EP MM AVA 1965-07-01 15:00:00 TS 17.9554 -119.394 main 1063 1063 P________PP___ EP031965 17.9575 -119.400 TS 45 0 17.9575 -119.400 TC 45 17.9473 -119.372 2 9 276
1965180N15250 1965 51 EP MM AVA 1965-07-01 18:00:00 TS 17.9960 -119.890 45 hurdat_epa main 1100 1100 O________OP___ hurdat_epa EP031965 18.0000 -119.900 TS 45 0 18.0000 -119.900 TC 45 17.9797 -119.850 2 9 273
1965180N15250 1965 51 EP MM AVA 1965-07-01 21:00:00 TS 18.0053 -120.352 main 1138 1138 P________PP___ EP031965 18.0073 -120.358 TS 45 0 18.0073 -120.358 TC 45 17.9973 -120.328 2 9 270
1965180N15250 1965 51 EP MM AVA 1965-07-02 00:00:00 TS 18.0000 -120.800 45 hurdat_epa main 1170 1170 O________OO___ hurdat_epa EP031965 18.0000 -120.800 TS 45 0 18.0000 -120.800 TC 45 18.0000 -120.800 2 9 270
1965180N15250 1965 51 EP MM AVA 1965-07-02 03:00:00 TS 18.0046 -121.254 main 1209 1209 P________PP___ EP031965 18.0074 -121.250 TS 45 0 18.0074 -121.250 TC 45 17.9932 -121.269 2 9 270
1965180N15250 1965 51 EP MM AVA 1965-07-02 06:00:00 TS 17.9945 -121.706 45 hurdat_epa main 1242 1242 O________OP___ hurdat_epa EP031965 18.0000 -121.700 TS 45 0 18.0000 -121.700 TC 45 17.9723 -121.730 2 9 267
1965180N15250 1965 51 EP MM AVA 1965-07-02 09:00:00 TS 17.9540 -122.161 main 1283 1283 P________PP___ EP031965 17.9574 -122.158 TS 45 0 17.9574 -122.158 TC 45 17.9402 -122.176 2 9 264
1965180N15250 1965 51 EP MM AVA 1965-07-02 12:00:00 TS 17.9000 -122.600 45 hurdat_epa main 1323 1323 O________OO___ hurdat_epa EP031965 17.9000 -122.600 TS 45 0 17.9000 -122.600 TC 45 17.9000 -122.600 2 8 263
1965180N15250 1965 51 EP MM AVA 1965-07-02 15:00:00 TS 17.8529 -123.008 main 1357 1357 P________PP___ EP031965 17.8499 -123.015 TS 45 0 17.8499 -123.015 TC 45 17.8646 -122.980 2 8 263
1965180N15250 1965 51 EP MM AVA 1965-07-02 18:00:00 TS 17.8043 -123.388 45 hurdat_epa main 1398 1398 O________OP___ hurdat_epa EP031965 17.8000 -123.400 TS 45 0 17.8000 -123.400 TC 45 17.8216 -123.342 2 7 262
1965180N15250 1965 51 EP MM AVA 1965-07-02 21:00:00 TS 17.7594 -123.736 main 1418 1418 P________PP___ EP031965 17.7573 -123.742 TS 45 0 17.7573 -123.742 TC 45 17.7677 -123.708 2 7 261
1965180N15250 1965 51 EP MM AVA 1965-07-03 00:00:00 TS 17.7000 -124.100 45 hurdat_epa main 1454 1454 O________OO___ hurdat_epa EP031965 17.7000 -124.100 TS 45 0 17.7000 -124.100 TC 45 17.7000 -124.100 6 8 259
1965180N15250 1965 51 EP MM AVA 1965-07-03 03:00:00 TS 17.6080 -124.531 main 1490 1490 P________PP___ EP031965 17.6074 -124.528 TS 45 0 17.6074 -124.528 TC 45 17.6103 -124.546 6 9 257
1965180N15250 1965 51 EP MM AVA 1965-07-03 06:00:00 TS 17.5015 -125.004 45 hurdat_epa main 1532 1532 O________OP___ hurdat_epa EP031965 17.5000 -125.000 TS 45 0 17.5000 -125.000 TC 45 17.5074 -125.020 6 9 257
1965180N15250 1965 51 EP MM AVA 1965-07-03 09:00:00 TS 17.4001 -125.496 main 1575 1575 P________PP___ EP031965 17.3999 -125.492 TS 35 0 17.3999 -125.492 TC 35 17.4009 -125.509 6 10 258
1965180N15250 1965 51 EP MM AVA 1965-07-03 12:00:00 TS 17.3000 -126.000 25 hurdat_epa main 1619 1619 O________OO___ hurdat_epa EP031965 17.3000 -126.000 TD 25 -1 17.3000 -126.000 TC 25 17.3000 -126.000 6 10 258
1965180N15250 1965 51 EP MM AVA 1965-07-03 15:00:00 TS 17.1975 -126.504 main 1663 1663 P________PP___ EP031965 17.1924 -126.508 TD 25 -1 17.1924 -126.508 TC 25 17.2177 -126.491 6 10 259
1965180N15250 1965 51 EP MM AVA 1965-07-03 18:00:00 TS 17.1085 -126.996 25 hurdat_epa main 1708 1708 O________OP___ hurdat_epa EP031965 17.1000 -127.000 TD 25 -1 17.1000 -127.000 TC 25 17.1424 -126.980 6 9 261
1965180N15250 1965 51 EP MM AVA 1965-07-03 21:00:00 TS 17.0481 -127.463 main 1753 1753 P________PP___ EP031965 17.0424 -127.465 TD 25 -1 17.0424 -127.465 TC 25 17.0709 -127.454 6 9 263
1965180N15250 1965 51 EP MM AVA 1965-07-04 00:00:00 TS 17.0000 -127.900 25 hurdat_epa main 1783 1783 O________OO___ hurdat_epa EP031965 17.0000 -127.900 TD 25 -1 17.0000 -127.900 TC 25 17.0000 -127.900 6 8 263
1965180N15250 1965 51 EP MM AVA 1965-07-04 03:00:00 TS 16.9516 -128.313 main 1814 1814 P________PP___ EP031965 16.9574 -128.315 TD 25 -1 16.9574 -128.315 TC 25 16.9286 -128.304 6 8 262
1965180N15250 1965 51 EP MM AVA 1965-07-04 06:00:00 TS 16.8914 -128.696 25 hurdat_epa main 1852 1852 O________OP___ hurdat_epa EP031965 16.9000 -128.700 TD 25 -1 16.9000 -128.700 TC 25 16.8569 -128.680 6 7 258
1965180N15250 1965 51 EP MM AVA 1965-07-04 09:00:00 TS 16.8023 -129.054 main 1891 1891 P________PP___ EP031965 16.8074 -129.057 TD 25 -1 16.8074 -129.057 TC 25 16.7818 -129.041 6 7 254
1965180N15250 1965 51 EP MM AVA 1965-07-04 12:00:00 TS 16.7000 -129.400 25 hurdat_epa main 1922 1922 O________OO___ hurdat_epa EP031965 16.7000 -129.400 TD 25 -1 16.7000 -129.400 TC 25 16.7000 -129.400 6 7 253
1965180N15250 1965 51 EP MM AVA 1965-07-04 15:00:00 TS 16.6018 -129.747 main 1953 1953 P________PP___ EP031965 16.5999 -129.742 TD 25 -1 16.5999 -129.742 TC 25 16.6092 -129.767 6 7 254
1965180N15250 1965 51 EP MM AVA 1965-07-04 18:00:00 TS 16.5021 -130.108 25 hurdat_epa main 1993 1993 O________OP___ hurdat_epa EP031965 16.5000 -130.100 TD 25 -1 16.5000 -130.100 TC 25 16.5107 -130.140 6 7 254
1965180N15250 1965 51 EP MM AVA 1965-07-04 21:00:00 TS 16.4015 -130.496 main 2032 2032 P________PP___ EP031965 16.4002 -130.490 TD 25 -1 16.4002 -130.490 TC 25 16.4069 -130.519 6 8 255
1965180N15250 1965 51 EP MM AVA 1965-07-05 00:00:00 TS 16.3000 -130.900 25 hurdat_epa main 2072 O________OO___ hurdat_epa EP031965 16.3000 -130.900 TD 25 -1 16.3000 -130.900 TC 25 16.3000 -130.900 6 8 255

IBTrACS Databaseについて

本データベースは、米国NOAAが公開する1842年以降の世界の熱帯低気圧のベストトラックデータアーカイブInternational Best Track Archive for Climate Stewardship (IBTrACS)を、ウェブで閲覧しやすい形式に変換したものです。

最終更新日:2021-12-03